sensor_id;sensor_type;location;lat;lon;timestamp;P1;durP1;ratioP1;P2;durP2;ratioP2
24663;SDS011;12791;50.992;13.788;2022-07-03T00:00:21;2.63;;;1.90;;
24663;SDS011;12791;50.992;13.788;2022-07-03T00:02:49;2.55;;;2.28;;
24663;SDS011;12791;50.992;13.788;2022-07-03T00:05:15;1.80;;;1.80;;
24663;SDS011;12791;50.992;13.788;2022-07-03T00:07:42;2.10;;;2.00;;
24663;SDS011;12791;50.992;13.788;2022-07-03T00:10:09;2.63;;;2.50;;
24663;SDS011;12791;50.992;13.788;2022-07-03T00:12:35;2.15;;;2.05;;
24663;SDS011;12791;50.992;13.788;2022-07-03T00:15:02;2.10;;;2.03;;
24663;SDS011;12791;50.992;13.788;2022-07-03T00:17:30;2.50;;;2.30;;
24663;SDS011;12791;50.992;13.788;2022-07-03T00:19:58;2.45;;;2.35;;
24663;SDS011;12791;50.992;13.788;2022-07-03T00:22:25;3.10;;;2.83;;
24663;SDS011;12791;50.992;13.788;2022-07-03T00:24:57;2.40;;;2.20;;
24663;SDS011;12791;50.992;13.788;2022-07-03T00:27:28;2.50;;;2.40;;
24663;SDS011;12791;50.992;13.788;2022-07-03T00:29:58;2.90;;;2.67;;
24663;SDS011;12791;50.992;13.788;2022-07-03T00:32:26;2.35;;;2.25;;
24663;SDS011;12791;50.992;13.788;2022-07-03T00:34:55;2.70;;;2.60;;
24663;SDS011;12791;50.992;13.788;2022-07-03T00:37:24;2.67;;;2.58;;
24663;SDS011;12791;50.992;13.788;2022-07-03T00:39:50;2.83;;;2.63;;
24663;SDS011;12791;50.992;13.788;2022-07-03T00:42:17;3.20;;;3.00;;
24663;SDS011;12791;50.992;13.788;2022-07-03T00:44:46;2.25;;;2.15;;
24663;SDS011;12791;50.992;13.788;2022-07-03T00:47:14;2.65;;;2.45;;
24663;SDS011;12791;50.992;13.788;2022-07-03T00:49:43;2.95;;;2.75;;
24663;SDS011;12791;50.992;13.788;2022-07-03T00:52:14;2.70;;;2.50;;
24663;SDS011;12791;50.992;13.788;2022-07-03T00:54:42;2.50;;;2.30;;
24663;SDS011;12791;50.992;13.788;2022-07-03T00:57:13;2.65;;;2.30;;
24663;SDS011;12791;50.992;13.788;2022-07-03T00:59:41;2.53;;;2.00;;
24663;SDS011;12791;50.992;13.788;2022-07-03T01:02:10;2.50;;;2.30;;
24663;SDS011;12791;50.992;13.788;2022-07-03T01:04:45;3.22;;;2.92;;
24663;SDS011;12791;50.992;13.788;2022-07-03T01:07:21;2.88;;;2.67;;
24663;SDS011;12791;50.992;13.788;2022-07-03T01:10:00;2.65;;;2.55;;
24663;SDS011;12791;50.992;13.788;2022-07-03T01:12:33;2.90;;;2.70;;
24663;SDS011;12791;50.992;13.788;2022-07-03T01:15:11;3.85;;;2.58;;
24663;SDS011;12791;50.992;13.788;2022-07-03T01:17:42;2.50;;;2.40;;
24663;SDS011;12791;50.992;13.788;2022-07-03T01:20:15;2.38;;;2.17;;
24663;SDS011;12791;50.992;13.788;2022-07-03T01:22:48;2.55;;;2.35;;
24663;SDS011;12791;50.992;13.788;2022-07-03T01:25:24;2.15;;;2.05;;
24663;SDS011;12791;50.992;13.788;2022-07-03T01:27:57;2.30;;;2.20;;
24663;SDS011;12791;50.992;13.788;2022-07-03T01:30:31;2.90;;;2.13;;
24663;SDS011;12791;50.992;13.788;2022-07-03T01:32:59;2.45;;;2.35;;
24663;SDS011;12791;50.992;13.788;2022-07-03T01:35:32;2.92;;;2.72;;
24663;SDS011;12791;50.992;13.788;2022-07-03T01:38:01;2.70;;;2.50;;
24663;SDS011;12791;50.992;13.788;2022-07-03T01:40:31;2.20;;;2.10;;
24663;SDS011;12791;50.992;13.788;2022-07-03T01:43:00;2.13;;;2.03;;
24663;SDS011;12791;50.992;13.788;2022-07-03T01:45:29;2.63;;;2.50;;
24663;SDS011;12791;50.992;13.788;2022-07-03T01:47:58;2.63;;;2.42;;
24663;SDS011;12791;50.992;13.788;2022-07-03T01:50:25;2.95;;;2.75;;
24663;SDS011;12791;50.992;13.788;2022-07-03T01:52:54;2.72;;;2.63;;
24663;SDS011;12791;50.992;13.788;2022-07-03T01:55:22;3.40;;;3.20;;
24663;SDS011;12791;50.992;13.788;2022-07-03T01:57:50;2.65;;;2.55;;
24663;SDS011;12791;50.992;13.788;2022-07-03T02:00:19;3.45;;;3.20;;
24663;SDS011;12791;50.992;13.788;2022-07-03T02:02:50;3.35;;;3.05;;
24663;SDS011;12791;50.992;13.788;2022-07-03T02:05:26;2.90;;;2.75;;
24663;SDS011;12791;50.992;13.788;2022-07-03T02:08:00;2.60;;;2.50;;
24663;SDS011;12791;50.992;13.788;2022-07-03T02:10:33;2.90;;;2.80;;
24663;SDS011;12791;50.992;13.788;2022-07-03T02:13:06;3.10;;;2.90;;
24663;SDS011;12791;50.992;13.788;2022-07-03T02:15:37;3.05;;;2.30;;
24663;SDS011;12791;50.992;13.788;2022-07-03T02:18:10;2.55;;;2.45;;
24663;SDS011;12791;50.992;13.788;2022-07-03T02:20:45;2.97;;;2.38;;
24663;SDS011;12791;50.992;13.788;2022-07-03T02:23:17;2.20;;;2.10;;
24663;SDS011;12791;50.992;13.788;2022-07-03T02:25:50;2.17;;;1.97;;
24663;SDS011;12791;50.992;13.788;2022-07-03T02:28:22;2.63;;;2.47;;
24663;SDS011;12791;50.992;13.788;2022-07-03T02:30:59;2.53;;;2.42;;
24663;SDS011;12791;50.992;13.788;2022-07-03T02:33:28;2.45;;;2.30;;
24663;SDS011;12791;50.992;13.788;2022-07-03T02:35:56;2.42;;;2.22;;
24663;SDS011;12791;50.992;13.788;2022-07-03T02:38:24;2.67;;;2.58;;
24663;SDS011;12791;50.992;13.788;2022-07-03T02:40:54;3.03;;;2.63;;
24663;SDS011;12791;50.992;13.788;2022-07-03T02:43:28;2.53;;;2.42;;
24663;SDS011;12791;50.992;13.788;2022-07-03T02:46:04;2.95;;;2.70;;
24663;SDS011;12791;50.992;13.788;2022-07-03T02:48:47;2.30;;;2.20;;
24663;SDS011;12791;50.992;13.788;2022-07-03T02:51:17;3.05;;;2.85;;
24663;SDS011;12791;50.992;13.788;2022-07-03T02:53:50;4.00;;;2.83;;
24663;SDS011;12791;50.992;13.788;2022-07-03T02:56:27;2.60;;;2.50;;
24663;SDS011;12791;50.992;13.788;2022-07-03T02:59:03;2.33;;;2.22;;
24663;SDS011;12791;50.992;13.788;2022-07-03T03:01:38;3.13;;;2.97;;
24663;SDS011;12791;50.992;13.788;2022-07-03T03:04:14;2.97;;;2.78;;
24663;SDS011;12791;50.992;13.788;2022-07-03T03:06:48;3.67;;;3.40;;
24663;SDS011;12791;50.992;13.788;2022-07-03T03:09:20;2.80;;;2.70;;
24663;SDS011;12791;50.992;13.788;2022-07-03T03:11:52;2.40;;;2.27;;
24663;SDS011;12791;50.992;13.788;2022-07-03T03:14:26;3.10;;;2.90;;
24663;SDS011;12791;50.992;13.788;2022-07-03T03:17:02;2.53;;;2.40;;
24663;SDS011;12791;50.992;13.788;2022-07-03T03:19:32;2.78;;;2.60;;
24663;SDS011;12791;50.992;13.788;2022-07-03T03:22:07;2.95;;;2.75;;
24663;SDS011;12791;50.992;13.788;2022-07-03T03:24:41;3.38;;;3.17;;
24663;SDS011;12791;50.992;13.788;2022-07-03T03:27:09;3.00;;;2.78;;
24663;SDS011;12791;50.992;13.788;2022-07-03T03:29:36;2.95;;;2.75;;
24663;SDS011;12791;50.992;13.788;2022-07-03T03:32:04;3.78;;;3.47;;
24663;SDS011;12791;50.992;13.788;2022-07-03T03:34:32;3.17;;;2.97;;
24663;SDS011;12791;50.992;13.788;2022-07-03T03:36:59;2.50;;;2.40;;
24663;SDS011;12791;50.992;13.788;2022-07-03T03:39:27;3.47;;;3.17;;
24663;SDS011;12791;50.992;13.788;2022-07-03T03:41:54;3.72;;;3.53;;
24663;SDS011;12791;50.992;13.788;2022-07-03T03:44:20;3.03;;;2.90;;
24663;SDS011;12791;50.992;13.788;2022-07-03T03:46:47;3.28;;;3.08;;
24663;SDS011;12791;50.992;13.788;2022-07-03T03:49:16;3.42;;;3.13;;
24663;SDS011;12791;50.992;13.788;2022-07-03T03:51:43;2.72;;;2.63;;
24663;SDS011;12791;50.992;13.788;2022-07-03T03:54:10;4.68;;;3.65;;
24663;SDS011;12791;50.992;13.788;2022-07-03T03:56:37;3.80;;;3.60;;
24663;SDS011;12791;50.992;13.788;2022-07-03T03:59:03;5.45;;;4.15;;
24663;SDS011;12791;50.992;13.788;2022-07-03T04:01:30;4.38;;;3.90;;
24663;SDS011;12791;50.992;13.788;2022-07-03T04:03:57;4.43;;;3.70;;
24663;SDS011;12791;50.992;13.788;2022-07-03T04:06:25;3.78;;;3.47;;
24663;SDS011;12791;50.992;13.788;2022-07-03T04:08:52;3.65;;;3.35;;
24663;SDS011;12791;50.992;13.788;2022-07-03T04:11:19;3.63;;;3.40;;
24663;SDS011;12791;50.992;13.788;2022-07-03T04:13:45;3.53;;;3.22;;
24663;SDS011;12791;50.992;13.788;2022-07-03T04:16:12;3.90;;;3.70;;
24663;SDS011;12791;50.992;13.788;2022-07-03T04:18:39;3.78;;;3.47;;
24663;SDS011;12791;50.992;13.788;2022-07-03T04:21:05;3.90;;;3.55;;
24663;SDS011;12791;50.992;13.788;2022-07-03T04:23:33;3.53;;;3.33;;
24663;SDS011;12791;50.992;13.788;2022-07-03T04:26:03;3.00;;;2.80;;
24663;SDS011;12791;50.992;13.788;2022-07-03T04:28:30;3.22;;;3.03;;
24663;SDS011;12791;50.992;13.788;2022-07-03T04:30:58;3.55;;;3.25;;
24663;SDS011;12791;50.992;13.788;2022-07-03T04:33:24;3.15;;;3.05;;
24663;SDS011;12791;50.992;13.788;2022-07-03T04:35:51;4.22;;;3.92;;
24663;SDS011;12791;50.992;13.788;2022-07-03T04:38:18;4.07;;;3.78;;
24663;SDS011;12791;50.992;13.788;2022-07-03T04:40:46;5.72;;;4.43;;
24663;SDS011;12791;50.992;13.788;2022-07-03T04:43:12;4.65;;;4.35;;
24663;SDS011;12791;50.992;13.788;2022-07-03T04:45:41;4.07;;;3.65;;
24663;SDS011;12791;50.992;13.788;2022-07-03T04:48:08;3.53;;;3.25;;
24663;SDS011;12791;50.992;13.788;2022-07-03T04:50:35;3.72;;;3.53;;
24663;SDS011;12791;50.992;13.788;2022-07-03T04:53:01;3.75;;;3.55;;
24663;SDS011;12791;50.992;13.788;2022-07-03T04:55:28;3.92;;;3.65;;
24663;SDS011;12791;50.992;13.788;2022-07-03T04:57:56;4.07;;;3.78;;
24663;SDS011;12791;50.992;13.788;2022-07-03T05:00:22;3.75;;;3.58;;
24663;SDS011;12791;50.992;13.788;2022-07-03T05:02:49;5.00;;;3.63;;
24663;SDS011;12791;50.992;13.788;2022-07-03T05:05:16;4.18;;;3.88;;
24663;SDS011;12791;50.992;13.788;2022-07-03T05:07:42;4.15;;;3.92;;
24663;SDS011;12791;50.992;13.788;2022-07-03T05:10:09;4.38;;;3.95;;
24663;SDS011;12791;50.992;13.788;2022-07-03T05:12:36;3.72;;;3.45;;
24663;SDS011;12791;50.992;13.788;2022-07-03T05:15:04;4.00;;;3.78;;
24663;SDS011;12791;50.992;13.788;2022-07-03T05:17:33;3.60;;;3.40;;
24663;SDS011;12791;50.992;13.788;2022-07-03T05:20:00;3.70;;;3.50;;
24663;SDS011;12791;50.992;13.788;2022-07-03T05:22:40;3.13;;;2.92;;
24663;SDS011;12791;50.992;13.788;2022-07-03T05:25:07;3.20;;;3.10;;
24663;SDS011;12791;50.992;13.788;2022-07-03T05:27:35;2.92;;;2.83;;
24663;SDS011;12791;50.992;13.788;2022-07-03T05:30:04;3.55;;;3.25;;
24663;SDS011;12791;50.992;13.788;2022-07-03T05:32:31;3.70;;;3.25;;
24663;SDS011;12791;50.992;13.788;2022-07-03T05:34:58;3.65;;;3.35;;
24663;SDS011;12791;50.992;13.788;2022-07-03T05:37:25;3.67;;;3.47;;
24663;SDS011;12791;50.992;13.788;2022-07-03T05:39:52;3.22;;;3.00;;
24663;SDS011;12791;50.992;13.788;2022-07-03T05:42:19;2.58;;;2.47;;
24663;SDS011;12791;50.992;13.788;2022-07-03T05:44:45;3.63;;;3.30;;
24663;SDS011;12791;50.992;13.788;2022-07-03T05:47:13;3.72;;;3.42;;
24663;SDS011;12791;50.992;13.788;2022-07-03T05:49:40;2.83;;;2.72;;
24663;SDS011;12791;50.992;13.788;2022-07-03T05:52:07;4.18;;;3.70;;
24663;SDS011;12791;50.992;13.788;2022-07-03T05:54:33;3.45;;;3.25;;
24663;SDS011;12791;50.992;13.788;2022-07-03T05:57:00;3.40;;;3.20;;
24663;SDS011;12791;50.992;13.788;2022-07-03T05:59:27;3.28;;;3.08;;
24663;SDS011;12791;50.992;13.788;2022-07-03T06:01:53;3.25;;;2.80;;
24663;SDS011;12791;50.992;13.788;2022-07-03T06:04:21;3.67;;;3.42;;
24663;SDS011;12791;50.992;13.788;2022-07-03T06:06:48;3.38;;;3.08;;
24663;SDS011;12791;50.992;13.788;2022-07-03T06:09:15;3.58;;;3.28;;
24663;SDS011;12791;50.992;13.788;2022-07-03T06:11:41;3.55;;;3.25;;
24663;SDS011;12791;50.992;13.788;2022-07-03T06:14:08;4.85;;;3.58;;
24663;SDS011;12791;50.992;13.788;2022-07-03T06:16:34;3.50;;;3.30;;
24663;SDS011;12791;50.992;13.788;2022-07-03T06:19:01;3.65;;;3.42;;
24663;SDS011;12791;50.992;13.788;2022-07-03T06:21:29;3.78;;;3.40;;
24663;SDS011;12791;50.992;13.788;2022-07-03T06:23:56;4.03;;;3.10;;
24663;SDS011;12791;50.992;13.788;2022-07-03T06:26:22;3.28;;;3.08;;
24663;SDS011;12791;50.992;13.788;2022-07-03T06:28:49;4.03;;;3.58;;
24663;SDS011;12791;50.992;13.788;2022-07-03T06:31:15;3.10;;;2.90;;
24663;SDS011;12791;50.992;13.788;2022-07-03T06:33:42;3.10;;;2.35;;
24663;SDS011;12791;50.992;13.788;2022-07-03T06:36:09;3.42;;;3.22;;
24663;SDS011;12791;50.992;13.788;2022-07-03T06:38:37;3.17;;;2.97;;
24663;SDS011;12791;50.992;13.788;2022-07-03T06:41:03;5.55;;;3.25;;
24663;SDS011;12791;50.992;13.788;2022-07-03T06:43:30;2.95;;;2.80;;
24663;SDS011;12791;50.992;13.788;2022-07-03T06:45:57;2.80;;;2.70;;
24663;SDS011;12791;50.992;13.788;2022-07-03T06:48:23;2.92;;;2.72;;
24663;SDS011;12791;50.992;13.788;2022-07-03T06:50:50;2.58;;;2.47;;
24663;SDS011;12791;50.992;13.788;2022-07-03T06:53:17;3.72;;;2.78;;
24663;SDS011;12791;50.992;13.788;2022-07-03T06:55:44;2.35;;;2.25;;
24663;SDS011;12791;50.992;13.788;2022-07-03T06:58:11;3.15;;;2.95;;
24663;SDS011;12791;50.992;13.788;2022-07-03T07:00:39;3.13;;;2.80;;
24663;SDS011;12791;50.992;13.788;2022-07-03T07:03:06;2.58;;;2.47;;
24663;SDS011;12791;50.992;13.788;2022-07-03T07:05:33;3.03;;;2.72;;
24663;SDS011;12791;50.992;13.788;2022-07-03T07:07:59;2.65;;;2.55;;
24663;SDS011;12791;50.992;13.788;2022-07-03T07:10:26;3.30;;;3.00;;
24663;SDS011;12791;50.992;13.788;2022-07-03T07:12:54;5.30;;;2.60;;
24663;SDS011;12791;50.992;13.788;2022-07-03T07:15:21;2.13;;;2.03;;
24663;SDS011;12791;50.992;13.788;2022-07-03T07:17:47;2.30;;;2.20;;
24663;SDS011;12791;50.992;13.788;2022-07-03T07:20:14;2.80;;;2.60;;
24663;SDS011;12791;50.992;13.788;2022-07-03T07:22:41;2.35;;;2.25;;
24663;SDS011;12791;50.992;13.788;2022-07-03T07:25:07;2.53;;;2.33;;
24663;SDS011;12791;50.992;13.788;2022-07-03T07:27:34;2.20;;;2.10;;
24663;SDS011;12791;50.992;13.788;2022-07-03T07:30:03;2.60;;;2.40;;
24663;SDS011;12791;50.992;13.788;2022-07-03T07:32:30;3.00;;;2.80;;
24663;SDS011;12791;50.992;13.788;2022-07-03T07:34:57;2.78;;;2.58;;
24663;SDS011;12791;50.992;13.788;2022-07-03T07:37:23;3.35;;;2.70;;
24663;SDS011;12791;50.992;13.788;2022-07-03T07:39:50;2.70;;;2.50;;
24663;SDS011;12791;50.992;13.788;2022-07-03T07:42:17;2.85;;;2.30;;
24663;SDS011;12791;50.992;13.788;2022-07-03T07:44:44;2.67;;;2.58;;
24663;SDS011;12791;50.992;13.788;2022-07-03T07:47:12;2.45;;;2.33;;
24663;SDS011;12791;50.992;13.788;2022-07-03T07:49:39;2.28;;;2.17;;
24663;SDS011;12791;50.992;13.788;2022-07-03T07:52:06;3.13;;;2.28;;
24663;SDS011;12791;50.992;13.788;2022-07-03T07:54:33;2.40;;;2.20;;
24663;SDS011;12791;50.992;13.788;2022-07-03T07:56:59;2.20;;;2.10;;
24663;SDS011;12791;50.992;13.788;2022-07-03T07:59:26;2.30;;;2.20;;
24663;SDS011;12791;50.992;13.788;2022-07-03T08:01:52;1.95;;;1.85;;
24663;SDS011;12791;50.992;13.788;2022-07-03T08:04:38;2.35;;;2.25;;
24663;SDS011;12791;50.992;13.788;2022-07-03T08:07:22;2.10;;;2.00;;
24663;SDS011;12791;50.992;13.788;2022-07-03T08:09:49;1.60;;;1.60;;
24663;SDS011;12791;50.992;13.788;2022-07-03T08:12:18;2.00;;;1.90;;
24663;SDS011;12791;50.992;13.788;2022-07-03T08:14:44;1.85;;;1.77;;
24663;SDS011;12791;50.992;13.788;2022-07-03T08:17:11;6.13;;;2.58;;
24663;SDS011;12791;50.992;13.788;2022-07-03T08:19:39;2.30;;;2.10;;
24663;SDS011;12791;50.992;13.788;2022-07-03T08:22:06;1.80;;;1.70;;
24663;SDS011;12791;50.992;13.788;2022-07-03T08:24:33;1.77;;;1.70;;
24663;SDS011;12791;50.992;13.788;2022-07-03T08:26:59;1.88;;;1.77;;
24663;SDS011;12791;50.992;13.788;2022-07-03T08:29:26;1.60;;;1.50;;
24663;SDS011;12791;50.992;13.788;2022-07-03T08:31:53;1.60;;;1.30;;
24663;SDS011;12791;50.992;13.788;2022-07-03T08:34:19;2.70;;;1.40;;
24663;SDS011;12791;50.992;13.788;2022-07-03T08:36:47;1.65;;;1.55;;
24663;SDS011;12791;50.992;13.788;2022-07-03T08:39:14;1.70;;;1.67;;
24663;SDS011;12791;50.992;13.788;2022-07-03T08:41:41;1.70;;;1.58;;
24663;SDS011;12791;50.992;13.788;2022-07-03T08:44:08;1.80;;;1.70;;
24663;SDS011;12791;50.992;13.788;2022-07-03T08:46:37;1.42;;;1.42;;
24663;SDS011;12791;50.992;13.788;2022-07-03T08:49:05;1.60;;;1.50;;
24663;SDS011;12791;50.992;13.788;2022-07-03T08:51:32;1.50;;;1.40;;
24663;SDS011;12791;50.992;13.788;2022-07-03T08:54:01;1.38;;;1.27;;
24663;SDS011;12791;50.992;13.788;2022-07-03T08:56:30;1.38;;;1.27;;
24663;SDS011;12791;50.992;13.788;2022-07-03T08:58:58;1.50;;;1.00;;
24663;SDS011;12791;50.992;13.788;2022-07-03T09:01:26;1.20;;;1.10;;
24663;SDS011;12791;50.992;13.788;2022-07-03T09:03:54;1.30;;;1.30;;
24663;SDS011;12791;50.992;13.788;2022-07-03T09:06:22;1.35;;;1.25;;
24663;SDS011;12791;50.992;13.788;2022-07-03T09:08:49;1.20;;;1.20;;
24663;SDS011;12791;50.992;13.788;2022-07-03T09:11:19;1.48;;;1.38;;
24663;SDS011;12791;50.992;13.788;2022-07-03T09:13:45;1.38;;;1.23;;
24663;SDS011;12791;50.992;13.788;2022-07-03T09:16:15;1.40;;;1.30;;
24663;SDS011;12791;50.992;13.788;2022-07-03T09:18:43;1.15;;;1.15;;
24663;SDS011;12791;50.992;13.788;2022-07-03T09:21:11;1.45;;;1.35;;
24663;SDS011;12791;50.992;13.788;2022-07-03T09:23:38;1.30;;;1.30;;
24663;SDS011;12791;50.992;13.788;2022-07-03T09:26:06;1.40;;;1.40;;
24663;SDS011;12791;50.992;13.788;2022-07-03T09:28:44;1.05;;;1.05;;
24663;SDS011;12791;50.992;13.788;2022-07-03T09:31:13;1.40;;;1.30;;
24663;SDS011;12791;50.992;13.788;2022-07-03T09:33:50;2.63;;;1.55;;
24663;SDS011;12791;50.992;13.788;2022-07-03T09:36:20;2.25;;;1.63;;
24663;SDS011;12791;50.992;13.788;2022-07-03T09:38:47;1.20;;;1.10;;
24663;SDS011;12791;50.992;13.788;2022-07-03T09:41:14;1.42;;;0.93;;
24663;SDS011;12791;50.992;13.788;2022-07-03T09:43:41;1.83;;;1.30;;
24663;SDS011;12791;50.992;13.788;2022-07-03T09:46:10;1.52;;;1.50;;
24663;SDS011;12791;50.992;13.788;2022-07-03T09:48:37;1.77;;;1.55;;
24663;SDS011;12791;50.992;13.788;2022-07-03T09:51:09;2.10;;;1.40;;
24663;SDS011;12791;50.992;13.788;2022-07-03T09:53:44;1.67;;;1.30;;
24663;SDS011;12791;50.992;13.788;2022-07-03T09:56:19;1.30;;;1.30;;
24663;SDS011;12791;50.992;13.788;2022-07-03T10:01:43;1.38;;;1.27;;
24663;SDS011;12791;50.992;13.788;2022-07-03T10:04:12;2.28;;;1.27;;
24663;SDS011;12791;50.992;13.788;2022-07-03T10:06:50;1.13;;;1.13;;
24663;SDS011;12791;50.992;13.788;2022-07-03T10:09:19;1.10;;;1.10;;
24663;SDS011;12791;50.992;13.788;2022-07-03T10:11:47;1.40;;;1.40;;
24663;SDS011;12791;50.992;13.788;2022-07-03T10:14:14;1.20;;;1.20;;
24663;SDS011;12791;50.992;13.788;2022-07-03T10:16:43;1.20;;;1.10;;
24663;SDS011;12791;50.992;13.788;2022-07-03T10:19:12;1.05;;;1.05;;
24663;SDS011;12791;50.992;13.788;2022-07-03T10:21:41;1.63;;;1.05;;
24663;SDS011;12791;50.992;13.788;2022-07-03T10:24:09;1.25;;;1.20;;
24663;SDS011;12791;50.992;13.788;2022-07-03T10:26:38;1.00;;;0.90;;
24663;SDS011;12791;50.992;13.788;2022-07-03T10:29:07;2.58;;;1.02;;
24663;SDS011;12791;50.992;13.788;2022-07-03T10:31:37;1.10;;;1.10;;
24663;SDS011;12791;50.992;13.788;2022-07-03T10:34:05;1.40;;;1.40;;
24663;SDS011;12791;50.992;13.788;2022-07-03T10:36:32;1.50;;;1.08;;
24663;SDS011;12791;50.992;13.788;2022-07-03T10:39:03;1.45;;;1.35;;
24663;SDS011;12791;50.992;13.788;2022-07-03T10:41:33;1.35;;;1.27;;
24663;SDS011;12791;50.992;13.788;2022-07-03T10:44:19;1.15;;;1.15;;
24663;SDS011;12791;50.992;13.788;2022-07-03T10:47:05;1.63;;;1.00;;
24663;SDS011;12791;50.992;13.788;2022-07-03T10:49:31;1.10;;;1.10;;
24663;SDS011;12791;50.992;13.788;2022-07-03T10:51:58;1.02;;;1.02;;
24663;SDS011;12791;50.992;13.788;2022-07-03T10:54:27;0.95;;;0.95;;
24663;SDS011;12791;50.992;13.788;2022-07-03T11:00:00;1.35;;;1.35;;
24663;SDS011;12791;50.992;13.788;2022-07-03T11:02:36;0.98;;;0.98;;
24663;SDS011;12791;50.992;13.788;2022-07-03T11:05:06;1.88;;;1.45;;
24663;SDS011;12791;50.992;13.788;2022-07-03T11:07:39;1.60;;;1.50;;
24663;SDS011;12791;50.992;13.788;2022-07-03T11:12:56;1.58;;;1.48;;
24663;SDS011;12791;50.992;13.788;2022-07-03T11:15:26;1.20;;;1.20;;
24663;SDS011;12791;50.992;13.788;2022-07-03T11:20:55;2.33;;;1.20;;
24663;SDS011;12791;50.992;13.788;2022-07-03T11:24:03;1.65;;;1.10;;
24663;SDS011;12791;50.992;13.788;2022-07-03T11:26:45;1.00;;;1.00;;
24663;SDS011;12791;50.992;13.788;2022-07-03T11:29:27;0.90;;;0.90;;
24663;SDS011;12791;50.992;13.788;2022-07-03T11:31:54;1.80;;;1.70;;
24663;SDS011;12791;50.992;13.788;2022-07-03T11:34:22;1.10;;;1.10;;
24663;SDS011;12791;50.992;13.788;2022-07-03T11:36:49;1.00;;;1.00;;
24663;SDS011;12791;50.992;13.788;2022-07-03T11:39:16;1.13;;;1.13;;
24663;SDS011;12791;50.992;13.788;2022-07-03T11:41:46;1.10;;;1.10;;
24663;SDS011;12791;50.992;13.788;2022-07-03T11:44:20;1.48;;;1.48;;
24663;SDS011;12791;50.992;13.788;2022-07-03T11:46:48;1.23;;;1.13;;
24663;SDS011;12791;50.992;13.788;2022-07-03T11:49:16;1.20;;;1.10;;
24663;SDS011;12791;50.992;13.788;2022-07-03T11:51:54;1.33;;;1.27;;
24663;SDS011;12791;50.992;13.788;2022-07-03T11:54:23;1.73;;;1.63;;
24663;SDS011;12791;50.992;13.788;2022-07-03T11:56:50;1.00;;;1.00;;
24663;SDS011;12791;50.992;13.788;2022-07-03T11:59:16;1.08;;;1.08;;
24663;SDS011;12791;50.992;13.788;2022-07-03T12:01:44;1.15;;;1.15;;
24663;SDS011;12791;50.992;13.788;2022-07-03T12:04:12;1.10;;;1.10;;
24663;SDS011;12791;50.992;13.788;2022-07-03T12:06:41;1.40;;;1.40;;
24663;SDS011;12791;50.992;13.788;2022-07-03T12:09:13;1.30;;;1.20;;
24663;SDS011;12791;50.992;13.788;2022-07-03T12:11:44;1.52;;;1.33;;
24663;SDS011;12791;50.992;13.788;2022-07-03T12:14:32;1.10;;;1.10;;
24663;SDS011;12791;50.992;13.788;2022-07-03T12:17:00;1.10;;;1.10;;
24663;SDS011;12791;50.992;13.788;2022-07-03T12:19:26;0.90;;;0.90;;
24663;SDS011;12791;50.992;13.788;2022-07-03T12:21:53;1.00;;;1.00;;
24663;SDS011;12791;50.992;13.788;2022-07-03T12:24:21;1.17;;;1.08;;
24663;SDS011;12791;50.992;13.788;2022-07-03T12:26:49;2.10;;;1.15;;
24663;SDS011;12791;50.992;13.788;2022-07-03T12:29:16;1.00;;;1.00;;
24663;SDS011;12791;50.992;13.788;2022-07-03T12:31:43;1.10;;;1.10;;
24663;SDS011;12791;50.992;13.788;2022-07-03T12:34:11;1.40;;;1.30;;
24663;SDS011;12791;50.992;13.788;2022-07-03T12:36:39;1.02;;;1.02;;
24663;SDS011;12791;50.992;13.788;2022-07-03T12:39:06;1.20;;;1.20;;
24663;SDS011;12791;50.992;13.788;2022-07-03T12:41:34;2.15;;;1.10;;
24663;SDS011;12791;50.992;13.788;2022-07-03T12:44:01;1.20;;;1.20;;
24663;SDS011;12791;50.992;13.788;2022-07-03T12:46:27;1.40;;;1.33;;
24663;SDS011;12791;50.992;13.788;2022-07-03T12:48:59;1.25;;;1.20;;
24663;SDS011;12791;50.992;13.788;2022-07-03T12:51:36;1.40;;;1.30;;
24663;SDS011;12791;50.992;13.788;2022-07-03T12:54:05;1.48;;;1.40;;
24663;SDS011;12791;50.992;13.788;2022-07-03T12:56:32;1.13;;;1.13;;
24663;SDS011;12791;50.992;13.788;2022-07-03T12:59:00;0.98;;;0.98;;
24663;SDS011;12791;50.992;13.788;2022-07-03T13:01:41;1.80;;;1.10;;
24663;SDS011;12791;50.992;13.788;2022-07-03T13:04:09;1.15;;;1.15;;
24663;SDS011;12791;50.992;13.788;2022-07-03T13:06:39;1.08;;;1.08;;
24663;SDS011;12791;50.992;13.788;2022-07-03T13:09:06;1.23;;;1.17;;
24663;SDS011;12791;50.992;13.788;2022-07-03T13:11:34;1.75;;;1.20;;
24663;SDS011;12791;50.992;13.788;2022-07-03T13:14:07;1.52;;;1.45;;
24663;SDS011;12791;50.992;13.788;2022-07-03T13:16:35;1.10;;;1.10;;
24663;SDS011;12791;50.992;13.788;2022-07-03T13:19:07;1.30;;;1.20;;
24663;SDS011;12791;50.992;13.788;2022-07-03T13:21:35;1.65;;;1.20;;
24663;SDS011;12791;50.992;13.788;2022-07-03T13:24:02;1.35;;;1.00;;
24663;SDS011;12791;50.992;13.788;2022-07-03T13:26:29;1.40;;;1.30;;
24663;SDS011;12791;50.992;13.788;2022-07-03T13:28:56;1.25;;;1.20;;
24663;SDS011;12791;50.992;13.788;2022-07-03T13:31:24;1.23;;;1.13;;
24663;SDS011;12791;50.992;13.788;2022-07-03T13:33:51;2.25;;;1.30;;
24663;SDS011;12791;50.992;13.788;2022-07-03T13:36:17;1.20;;;1.10;;
24663;SDS011;12791;50.992;13.788;2022-07-03T13:38:44;1.17;;;1.17;;
24663;SDS011;12791;50.992;13.788;2022-07-03T13:41:11;0.98;;;0.98;;
24663;SDS011;12791;50.992;13.788;2022-07-03T13:43:38;1.20;;;1.10;;
24663;SDS011;12791;50.992;13.788;2022-07-03T13:46:05;1.27;;;1.17;;
24663;SDS011;12791;50.992;13.788;2022-07-03T13:48:33;1.27;;;1.17;;
24663;SDS011;12791;50.992;13.788;2022-07-03T13:50:59;0.95;;;0.95;;
24663;SDS011;12791;50.992;13.788;2022-07-03T13:53:26;1.08;;;0.98;;
24663;SDS011;12791;50.992;13.788;2022-07-03T13:55:54;1.50;;;1.40;;
24663;SDS011;12791;50.992;13.788;2022-07-03T13:58:21;0.90;;;0.90;;
24663;SDS011;12791;50.992;13.788;2022-07-03T14:00:48;1.02;;;1.02;;
24663;SDS011;12791;50.992;13.788;2022-07-03T14:03:15;0.90;;;0.90;;
24663;SDS011;12791;50.992;13.788;2022-07-03T14:05:43;0.75;;;0.75;;
24663;SDS011;12791;50.992;13.788;2022-07-03T14:08:10;1.10;;;1.02;;
24663;SDS011;12791;50.992;13.788;2022-07-03T14:10:37;0.80;;;0.80;;
24663;SDS011;12791;50.992;13.788;2022-07-03T14:13:04;0.73;;;0.73;;
24663;SDS011;12791;50.992;13.788;2022-07-03T14:15:32;0.90;;;0.90;;
24663;SDS011;12791;50.992;13.788;2022-07-03T14:17:59;0.90;;;0.90;;
24663;SDS011;12791;50.992;13.788;2022-07-03T14:20:26;0.80;;;0.80;;
24663;SDS011;12791;50.992;13.788;2022-07-03T14:22:54;0.60;;;0.60;;
24663;SDS011;12791;50.992;13.788;2022-07-03T14:25:21;0.75;;;0.75;;
24663;SDS011;12791;50.992;13.788;2022-07-03T14:27:48;1.20;;;1.08;;
24663;SDS011;12791;50.992;13.788;2022-07-03T14:30:33;0.82;;;0.82;;
24663;SDS011;12791;50.992;13.788;2022-07-03T14:33:17;1.30;;;1.00;;
24663;SDS011;12791;50.992;13.788;2022-07-03T14:35:44;1.60;;;1.08;;
24663;SDS011;12791;50.992;13.788;2022-07-03T14:38:12;0.90;;;0.90;;
24663;SDS011;12791;50.992;13.788;2022-07-03T14:40:39;1.23;;;1.13;;
24663;SDS011;12791;50.992;13.788;2022-07-03T14:43:05;1.85;;;1.30;;
24663;SDS011;12791;50.992;13.788;2022-07-03T14:45:32;2.60;;;1.30;;
24663;SDS011;12791;50.992;13.788;2022-07-03T14:47:59;1.10;;;1.10;;
24663;SDS011;12791;50.992;13.788;2022-07-03T14:50:25;2.03;;;1.40;;
24663;SDS011;12791;50.992;13.788;2022-07-03T14:52:52;0.93;;;0.93;;
24663;SDS011;12791;50.992;13.788;2022-07-03T14:55:20;0.98;;;0.98;;